Time;durP1;ratioP1;P1;durP2;ratioP2;P2;SDS_P1;SDS_P2;PMS_P1;PMS_P2;Temp;Humidity;BMP_temperature;BMP_pressure;BME280_temperature;BME280_humidity;BME280_pressure;Samples;Min_cycle;Max_cycle;Signal;HPM_P1;HPM_P2
2022/09/07 00:02:00;;;;;;;1.95;0.80;;;24.00;53.00;;;;;;2350251;53;21106;-72
2022/09/07 00:04:27;;;;;;;2.08;0.77;;;24.00;53.60;;;;;;2352344;53;20996;-70
2022/09/07 00:06:56;;;;;;;1.60;0.62;;;24.00;53.30;;;;;;2602966;52;20886;-71
2022/09/07 00:09:22;;;;;;;1.70;0.70;;;23.90;53.30;;;;;;2387609;52;21558;-71
2022/09/07 00:11:49;;;;;;;3.10;0.57;;;23.90;53.30;;;;;;2351207;53;20946;-71
2022/09/07 00:14:15;;;;;;;2.15;0.57;;;23.90;53.30;;;;;;2351393;53;21089;-71
2022/09/07 00:16:41;;;;;;;2.25;0.80;;;23.90;53.30;;;;;;2352323;53;20970;-72
2022/09/07 00:19:07;;;;;;;1.27;0.57;;;23.90;53.30;;;;;;2370844;52;20927;-70
2022/09/07 00:21:34;;;;;;;2.00;0.75;;;23.90;53.30;;;;;;2351609;53;20962;-71
2022/09/07 00:24:01;;;;;;;2.10;0.80;;;23.90;53.30;;;;;;2353626;53;21306;-72
2022/09/07 00:26:28;;;;;;;1.20;0.50;;;23.90;53.30;;;;;;2350356;53;21017;-71
2022/09/07 00:28:59;;;;;;;1.42;0.50;;;23.80;53.20;;;;;;2493363;52;20934;-71
2022/09/07 00:31:59;;;;;;;1.62;0.77;;;23.80;53.10;;;;;;2354497;53;20970;-71
2022/09/07 00:34:25;;;;;;;1.95;1.00;;;23.80;53.30;;;;;;2349865;53;20923;-71
2022/09/07 00:36:51;;;;;;;3.67;0.73;;;23.80;53.20;;;;;;2350137;53;21054;-71
2022/09/07 00:39:18;;;;;;;1.95;0.55;;;23.70;53.20;;;;;;2350647;53;21420;-71
2022/09/07 00:42:05;;;;;;;1.70;0.60;;;23.70;53.20;;;;;;2353839;53;22005;-71
2022/09/07 00:49:37;;;;;;;1.77;0.60;;;23.70;53.40;;;;;;2349150;53;20930;-71
2022/09/07 00:52:04;;;;;;;1.67;0.50;;;23.60;53.20;;;;;;2351986;53;21053;-71
2022/09/07 00:54:33;;;;;;;1.80;0.70;;;23.60;53.10;;;;;;2352178;53;20995;-71
2022/09/07 00:56:59;;;;;;;2.85;0.80;;;23.50;53.40;;;;;;2351240;53;20949;-71
2022/09/07 01:00:03;;;;;;;1.90;0.70;;;23.50;53.60;;;;;;2351088;53;20985;-71
2022/09/07 01:02:29;;;;;;;1.62;0.70;;;23.50;53.80;;;;;;2324191;53;21289;-70
2022/09/07 01:05:00;;;;;;;2.37;0.75;;;23.40;53.60;;;;;;2569219;52;21059;-70
2022/09/07 01:07:26;;;;;;;3.53;0.82;;;23.40;53.80;;;;;;2324757;53;20934;-71
2022/09/07 01:09:52;;;;;;;1.98;0.70;;;23.40;53.90;;;;;;2324515;53;20906;-71
2022/09/07 01:12:19;;;;;;;3.25;1.05;;;23.40;54.00;;;;;;2323787;53;21074;-70
2022/09/07 01:14:51;;;;;;;1.92;0.80;;;23.40;54.10;;;;;;2316904;53;21022;-71
2022/09/07 01:17:34;;;;;;;;;;;23.30;54.10;;;;;;2323322;53;20951;-72
2022/09/07 01:20:27;;;;;;;2.30;0.80;;;23.40;54.20;;;;;;2321518;53;20074;-71
2022/09/07 01:23:54;;;;;;;3.30;0.70;;;23.40;54.20;;;;;;2568162;52;21054;-71
2022/09/07 01:28:12;;;;;;;2.03;0.70;;;23.30;54.00;;;;;;2318121;53;21950;-71
2022/09/07 01:34:29;;;;;;;2.30;0.70;;;23.30;54.00;;;;;;2324044;54;21264;-71
2022/09/07 01:37:17;;;;;;;2.47;0.65;;;23.30;53.90;;;;;;2389879;52;21122;-70
2022/09/07 01:40:30;;;;;;;3.55;0.82;;;23.20;54.00;;;;;;2337080;53;20942;-72
2022/09/07 01:43:19;;;;;;;1.90;0.67;;;23.20;54.20;;;;;;2347522;54;20938;-71
2022/09/07 01:45:45;;;;;;;1.65;0.70;;;23.20;54.40;;;;;;2585703;52;20985;-70
2022/09/07 01:48:13;;;;;;;1.17;0.60;;;23.20;54.20;;;;;;2345783;54;21199;-71
2022/09/07 01:50:44;;;;;;;2.70;0.85;;;23.10;54.30;;;;;;2449544;52;21025;-71
2022/09/07 01:53:22;;;;;;;4.60;0.80;;;23.10;54.40;;;;;;2346140;53;21969;-71
2022/09/07 01:55:52;;;;;;;3.75;1.00;;;23.20;54.60;;;;;;2352147;53;20978;-71
2022/09/07 01:58:45;;;;;;;1.98;0.80;;;23.10;54.60;;;;;;2350146;53;20960;-70
2022/09/07 02:01:30;;;;;;;;;;;23.10;54.80;;;;;;2421735;52;21022;-71
2022/09/07 02:04:14;;;;;;;1.92;0.60;;;23.20;54.80;;;;;;2337527;53;20070;-71
2022/09/07 02:07:08;;;;;;;1.67;0.70;;;23.20;55.00;;;;;;2559453;52;21378;-71
2022/09/07 02:09:42;;;;;;;1.70;0.73;;;23.20;55.40;;;;;;2308228;52;1737291;-71
2022/09/07 02:12:23;;;;;;;2.05;0.80;;;23.10;55.00;;;;;;2331349;53;20978;-70
2022/09/07 02:14:51;;;;;;;2.55;0.95;;;23.10;56.00;;;;;;2348475;53;20926;-71
2022/09/07 02:18:04;;;;;;;3.05;0.90;;;23.10;55.20;;;;;;2575414;52;21472;-70
2022/09/07 02:20:36;;;;;;;2.40;0.93;;;23.10;55.80;;;;;;2346522;53;21950;-72
2022/09/07 02:23:21;;;;;;;2.55;0.95;;;23.10;55.50;;;;;;2352868;53;20993;-72
2022/09/07 02:25:55;;;;;;;1.70;0.70;;;23.10;55.90;;;;;;2354832;53;20997;-71
2022/09/07 02:28:39;;;;;;;4.87;1.10;;;23.10;55.40;;;;;;2332703;53;21404;-72
2022/09/07 02:31:07;;;;;;;2.85;1.00;;;23.20;56.20;;;;;;2354655;53;22094;-71
2022/09/07 02:33:33;;;;;;;2.92;0.95;;;23.20;55.70;;;;;;2602706;52;20937;-71
2022/09/07 02:36:00;;;;;;;3.83;1.08;;;23.20;55.80;;;;;;2351380;53;21244;-71
2022/09/07 02:38:27;;;;;;;2.50;0.75;;;23.20;55.90;;;;;;2352661;53;21314;-71
2022/09/07 02:40:54;;;;;;;2.35;0.90;;;23.20;56.00;;;;;;2351848;53;21088;-71
2022/09/07 02:43:21;;;;;;;3.45;1.10;;;23.20;56.20;;;;;;2352044;53;21045;-73
2022/09/07 02:45:59;;;;;;;2.87;0.90;;;23.20;56.20;;;;;;2351827;53;20934;-71
2022/09/07 02:50:17;;;;;;;2.33;0.85;;;23.20;56.40;;;;;;2344645;53;22123;-71
2022/09/07 02:53:23;;;;;;;1.30;0.50;;;23.30;56.20;;;;;;2583592;52;20968;-71
2022/09/07 02:56:24;;;;;;;1.85;0.77;;;23.30;56.00;;;;;;2349842;53;21041;-71
2022/09/07 03:02:00;;;;;;;2.30;0.70;;;23.30;55.80;;;;;;2576593;52;20943;-73
2022/09/07 03:11:15;;;;;;;2.03;0.50;;;23.30;55.70;;;;;;2350521;53;20989;-71
2022/09/07 03:13:41;;;;;;;1.58;0.45;;;23.30;55.40;;;;;;2598832;52;20958;-71
2022/09/07 03:16:59;;;;;;;1.55;0.60;;;23.30;55.10;;;;;;2351453;53;20980;-72
2022/09/07 03:23:12;;;;;;;1.60;0.70;;;23.30;55.50;;;;;;2603196;52;20985;-71
2022/09/07 03:25:38;;;;;;;1.83;0.68;;;23.20;55.40;;;;;;2353590;53;21000;-72
2022/09/07 03:28:19;;;;;;;1.60;0.62;;;23.20;55.40;;;;;;2352063;53;21014;-72
2022/09/07 03:30:46;;;;;;;2.90;0.88;;;23.10;55.60;;;;;;2356393;53;21297;-71
2022/09/07 03:33:14;;;;;;;3.58;0.88;;;23.10;55.40;;;;;;2602865;52;20986;-72
2022/09/07 03:35:44;;;;;;;1.98;0.70;;;23.10;55.40;;;;;;2351802;53;20922;-71
2022/09/07 03:38:35;;;;;;;1.58;0.60;;;23.00;55.40;;;;;;2351782;53;20932;-71
2022/09/07 03:41:02;;;;;;;1.77;0.70;;;23.10;55.60;;;;;;2349438;53;20998;-70
2022/09/07 03:43:29;;;;;;;3.03;0.70;;;23.00;55.40;;;;;;2336286;53;20963;-70
2022/09/07 03:46:02;;;;;;;2.10;0.70;;;23.00;55.30;;;;;;2344971;53;20927;-71
2022/09/07 03:48:30;;;;;;;1.85;0.65;;;23.00;55.40;;;;;;2430804;52;21006;-70
2022/09/07 03:51:00;;;;;;;1.55;0.60;;;23.00;55.30;;;;;;2340020;53;21789;-71
2022/09/07 03:53:29;;;;;;;1.90;0.82;;;22.90;55.30;;;;;;2352397;53;20939;-70
2022/09/07 03:56:03;;;;;;;2.37;0.85;;;22.90;55.30;;;;;;2352224;53;20950;-71
2022/09/07 03:58:29;;;;;;;2.30;0.65;;;22.80;55.40;;;;;;2353664;53;20962;-71
2022/09/07 04:00:56;;;;;;;2.95;0.82;;;22.80;55.30;;;;;;2456193;52;22034;-70
2022/09/07 04:03:22;;;;;;;2.50;1.08;;;22.80;55.40;;;;;;2351900;53;22133;-70
2022/09/07 04:05:49;;;;;;;3.53;1.42;;;22.70;55.40;;;;;;2351896;53;21521;-70
2022/09/07 04:08:15;;;;;;;3.12;1.27;;;22.70;55.50;;;;;;2352204;53;20926;-71
2022/09/07 04:10:42;;;;;;;4.05;1.25;;;22.60;55.60;;;;;;2349752;53;21348;-71
2022/09/07 04:13:09;;;;;;;2.03;0.88;;;22.60;55.60;;;;;;2352935;53;21026;-70
2022/09/07 04:15:35;;;;;;;2.30;0.90;;;22.60;55.80;;;;;;2352491;53;21830;-71
2022/09/07 04:18:01;;;;;;;2.42;0.90;;;22.60;55.80;;;;;;2350857;53;20956;-72
2022/09/07 04:20:28;;;;;;;1.65;0.75;;;22.60;55.80;;;;;;2351547;53;21452;-71
2022/09/07 04:22:55;;;;;;;2.80;1.10;;;22.50;56.30;;;;;;2350800;53;20965;-70
2022/09/07 04:25:21;;;;;;;3.05;0.80;;;22.60;55.90;;;;;;2351910;53;20958;-70
2022/09/07 04:27:47;;;;;;;2.00;0.90;;;22.50;55.90;;;;;;2351594;53;22123;-70
2022/09/07 04:30:13;;;;;;;2.70;0.80;;;22.50;55.90;;;;;;2351682;53;20929;-70
2022/09/07 04:32:40;;;;;;;2.47;1.10;;;22.50;56.00;;;;;;2349812;53;21010;-71
2022/09/07 04:35:08;;;;;;;2.90;0.82;;;22.40;55.90;;;;;;2350733;53;20922;-72
2022/09/07 04:37:53;;;;;;;2.08;0.98;;;22.40;55.90;;;;;;2353956;53;21096;-71
2022/09/07 04:40:20;;;;;;;2.75;0.93;;;22.40;56.30;;;;;;2349683;53;20954;-71
2022/09/07 04:42:46;;;;;;;2.30;0.90;;;22.40;56.00;;;;;;2351757;53;20945;-71
2022/09/07 04:45:12;;;;;;;2.72;0.90;;;22.40;56.20;;;;;;2574394;52;20915;-70
2022/09/07 04:47:38;;;;;;;4.12;1.23;;;22.40;56.40;;;;;;2351275;53;20954;-72
2022/09/07 04:50:05;;;;;;;1.92;0.80;;;22.40;56.50;;;;;;2602570;52;20970;-71
2022/09/07 04:52:32;;;;;;;3.50;1.10;;;22.40;56.70;;;;;;2404113;52;21030;-72
2022/09/07 04:54:58;;;;;;;3.40;1.02;;;22.30;56.70;;;;;;2569891;52;20957;-71
2022/09/07 04:57:25;;;;;;;2.62;1.00;;;22.40;56.90;;;;;;2589094;52;20985;-72
2022/09/07 04:59:51;;;;;;;2.92;1.15;;;22.40;56.80;;;;;;2330446;53;22021;-71
2022/09/07 05:02:17;;;;;;;1.85;1.00;;;22.30;56.80;;;;;;2355474;53;20977;-72
2022/09/07 05:04:44;;;;;;;3.40;0.88;;;22.40;56.80;;;;;;2329283;53;20946;-70
2022/09/07 05:07:13;;;;;;;2.87;0.85;;;22.40;56.80;;;;;;2351683;53;20976;-71
2022/09/07 05:09:40;;;;;;;2.92;1.00;;;22.40;56.80;;;;;;2331471;53;20934;-71
2022/09/07 05:12:06;;;;;;;2.12;0.90;;;22.40;56.80;;;;;;2602826;52;20898;-72
2022/09/07 05:14:33;;;;;;;2.30;0.80;;;22.40;56.70;;;;;;2351632;53;20927;-70
2022/09/07 05:17:02;;;;;;;3.90;1.15;;;22.30;56.50;;;;;;2353274;53;20942;-71
2022/09/07 05:19:28;;;;;;;4.85;1.10;;;22.30;56.60;;;;;;2352700;53;20911;-71
2022/09/07 05:21:56;;;;;;;4.65;1.60;;;22.30;56.50;;;;;;2350422;53;21098;-71
2022/09/07 05:24:22;;;;;;;3.55;1.20;;;22.30;56.80;;;;;;2351392;53;20950;-70
2022/09/07 05:27:18;;;;;;;2.55;1.00;;;22.30;56.80;;;;;;2600134;52;20988;-70
2022/09/07 05:29:46;;;;;;;3.42;1.00;;;22.30;57.00;;;;;;2329966;53;20924;-71
2022/09/07 05:32:27;;;;;;;2.50;1.17;;;22.30;56.70;;;;;;2325491;53;20981;-73
2022/09/07 05:34:54;;;;;;;2.10;0.95;;;22.30;56.70;;;;;;2516771;52;20949;-70
2022/09/07 05:37:20;;;;;;;2.37;1.08;;;22.30;56.70;;;;;;2569100;52;20964;-71
2022/09/07 05:39:47;;;;;;;3.05;1.12;;;22.30;56.70;;;;;;2569608;52;20961;-70
2022/09/07 05:42:13;;;;;;;1.95;0.85;;;22.30;56.70;;;;;;2325303;53;21559;-71
2022/09/07 05:44:39;;;;;;;1.92;0.82;;;22.30;56.80;;;;;;2325566;53;22084;-71
2022/09/07 05:47:09;;;;;;;1.50;0.82;;;22.20;56.60;;;;;;2385855;52;21446;-70
2022/09/07 05:49:35;;;;;;;2.20;0.80;;;22.20;56.60;;;;;;2329197;53;20980;-71
2022/09/07 05:52:02;;;;;;;2.42;0.88;;;22.20;56.70;;;;;;2326012;53;20984;-71
2022/09/07 05:54:28;;;;;;;3.45;0.93;;;22.20;56.80;;;;;;2411107;53;20953;-71
2022/09/07 05:57:02;;;;;;;1.92;0.90;;;22.20;56.90;;;;;;2324296;53;21308;-70
2022/09/07 05:59:29;;;;;;;2.25;0.85;;;22.20;57.00;;;;;;2325273;53;21056;-72
2022/09/07 06:01:55;;;;;;;2.70;1.02;;;22.20;56.90;;;;;;2326575;53;22033;-71
2022/09/07 06:04:22;;;;;;;2.22;0.82;;;22.20;56.90;;;;;;2335886;53;22255;-71
2022/09/07 06:06:48;;;;;;;2.87;0.85;;;22.20;57.00;;;;;;2336300;53;21110;-70
2022/09/07 06:10:07;;;;;;;4.18;1.10;;;22.20;57.00;;;;;;2326721;53;21469;-70
2022/09/07 06:13:03;;;;;;;2.22;0.80;;;22.20;57.30;;;;;;2324479;53;20940;-71
2022/09/07 06:15:33;;;;;;;2.67;0.88;;;22.20;57.10;;;;;;2324192;53;22072;-71
2022/09/07 06:18:20;;;;;;;2.08;0.80;;;22.20;57.20;;;;;;2327839;53;20952;-72
2022/09/07 06:20:47;;;;;;;2.85;0.90;;;22.20;57.60;;;;;;2324544;53;22020;-71
2022/09/07 06:23:14;;;;;;;3.80;1.10;;;22.20;57.40;;;;;;2325752;53;20964;-73
2022/09/07 06:25:48;;;;;;;3.33;1.40;;;22.30;58.00;;;;;;2324552;53;21007;-72
2022/09/07 06:28:14;;;;;;;2.75;0.95;;;22.30;58.10;;;;;;2323735;53;20921;-71
2022/09/07 06:30:40;;;;;;;3.00;1.05;;;22.30;57.80;;;;;;2572492;52;20953;-71
2022/09/07 06:33:06;;;;;;;2.30;1.33;;;22.30;58.00;;;;;;2324308;53;21563;-71
2022/09/07 06:35:33;;;;;;;4.47;1.48;;;22.40;58.30;;;;;;2324452;53;20936;-71
2022/09/07 06:38:17;;;;;;;4.32;1.33;;;22.40;58.40;;;;;;2327571;53;20957;-72
2022/09/07 06:40:52;;;;;;;2.92;1.02;;;22.50;59.00;;;;;;2571382;52;20936;-72
2022/09/07 06:44:21;;;;;;;3.45;1.00;;;22.50;58.80;;;;;;2568624;52;20968;-72
2022/09/07 06:46:47;;;;;;;4.62;1.20;;;22.60;58.60;;;;;;2565888;52;21025;-73
2022/09/07 06:49:41;;;;;;;2.65;1.00;;;22.70;58.80;;;;;;2321161;53;21371;-72
2022/09/07 06:52:07;;;;;;;3.37;1.00;;;22.80;59.20;;;;;;2341780;53;20950;-71
2022/09/07 06:54:33;;;;;;;2.62;1.05;;;22.80;59.00;;;;;;2352326;53;21903;-71
2022/09/07 06:58:15;;;;;;;5.30;1.40;;;22.90;59.10;;;;;;2346620;53;21036;-72
2022/09/07 07:00:41;;;;;;;3.72;1.10;;;23.00;59.90;;;;;;2600917;52;20929;-71
2022/09/07 07:03:08;;;;;;;3.17;1.10;;;23.10;59.40;;;;;;2350974;53;21029;-72
2022/09/07 07:05:35;;;;;;;6.07;1.20;;;23.20;59.60;;;;;;2348654;53;20930;-71
2022/09/07 07:08:02;;;;;;;3.30;1.10;;;23.20;59.70;;;;;;2460794;52;22164;-72
2022/09/07 07:10:28;;;;;;;3.17;0.90;;;23.30;59.80;;;;;;2352350;53;25354;-71
2022/09/07 07:12:57;;;;;;;5.65;1.20;;;23.40;59.90;;;;;;2352110;53;21482;-71
2022/09/07 07:15:27;;;;;;;3.97;1.20;;;23.50;60.00;;;;;;2352291;53;20997;-71
2022/09/07 07:17:54;;;;;;;4.18;1.30;;;23.60;60.20;;;;;;2354775;53;20946;-71
2022/09/07 07:20:45;;;;;;;3.00;1.00;;;23.80;60.20;;;;;;2354064;53;20978;-70
2022/09/07 07:23:12;;;;;;;3.72;1.00;;;23.90;60.60;;;;;;2352069;53;20923;-71
2022/09/07 07:25:38;;;;;;;4.00;1.20;;;24.00;60.10;;;;;;2351675;53;20938;-71
2022/09/07 07:28:04;;;;;;;2.80;1.05;;;24.10;60.10;;;;;;2350795;53;21320;-71
2022/09/07 07:31:04;;;;;;;3.83;0.90;;;24.20;60.00;;;;;;2598885;52;20934;-70
2022/09/07 07:33:34;;;;;;;3.17;1.05;;;24.30;60.10;;;;;;2578356;52;20918;-71
2022/09/07 07:36:34;;;;;;;4.28;1.00;;;24.40;60.00;;;;;;2423862;52;20938;-74
2022/09/07 07:39:02;;;;;;;3.25;0.90;;;24.60;60.10;;;;;;2350900;53;21108;-72
2022/09/07 07:41:31;;;;;;;2.72;1.20;;;24.60;59.70;;;;;;2378365;52;20958;-73
2022/09/07 07:44:52;;;;;;;2.60;1.15;;;24.80;59.70;;;;;;2350694;53;21062;-74
2022/09/07 07:48:17;;;;;;;4.32;1.05;;;24.90;59.70;;;;;;2363288;52;20934;-73
2022/09/07 07:51:06;;;;;;;3.37;1.10;;;25.00;59.60;;;;;;2350315;53;20977;-72
2022/09/07 07:53:36;;;;;;;4.47;1.23;;;25.10;59.60;;;;;;2350482;53;20923;-71
2022/09/07 07:56:07;;;;;;;2.83;1.00;;;25.20;59.40;;;;;;2352813;53;20938;-72
2022/09/07 07:58:35;;;;;;;4.00;1.30;;;25.30;59.40;;;;;;2350708;53;21882;-72
2022/09/07 08:01:12;;;;;;;3.10;1.00;;;25.40;59.40;;;;;;2351334;53;21018;-73
2022/09/07 08:03:40;;;;;;;4.37;1.20;;;25.50;59.30;;;;;;2351698;53;20942;-73
2022/09/07 08:06:08;;;;;;;3.85;1.20;;;25.60;59.20;;;;;;2350691;53;21012;-71
2022/09/07 08:15:30;;;;;;;2.00;0.77;;;25.90;59.10;;;;;;2441144;52;21894;-72
2022/09/07 08:17:56;;;;;;;5.57;1.17;;;26.00;59.00;;;;;;2351133;53;20977;-72
2022/09/07 08:21:00;;;;;;;3.17;0.85;;;26.00;58.90;;;;;;2345403;53;21964;-72
2022/09/07 08:23:27;;;;;;;4.00;1.30;;;26.10;58.70;;;;;;2496008;52;21829;-72
2022/09/07 08:25:54;;;;;;;4.50;1.27;;;26.20;58.70;;;;;;2602575;52;20947;-72
2022/09/07 08:28:21;;;;;;;1.92;0.90;;;26.30;58.40;;;;;;2352492;53;20972;-73
2022/09/07 08:31:10;;;;;;;3.22;1.12;;;26.30;58.30;;;;;;2346059;53;20974;-73
2022/09/07 08:33:36;;;;;;;3.10;1.00;;;26.40;58.10;;;;;;2350837;53;20942;-73
2022/09/07 08:36:04;;;;;;;3.60;0.90;;;26.50;58.00;;;;;;2351235;53;21018;-72
2022/09/07 08:38:32;;;;;;;2.03;0.93;;;26.60;57.70;;;;;;2601873;52;20949;-73
2022/09/07 08:40:58;;;;;;;3.50;1.02;;;26.70;57.50;;;;;;2352817;53;21036;-72
2022/09/07 08:53:17;;;;;;;3.85;0.95;;;26.80;57.60;;;;;;2382813;52;21910;-72
2022/09/07 08:55:53;;;;;;;;;;;27.10;57.30;;;;;;2353685;53;20954;-72
2022/09/07 08:59:08;;;;;;;1.60;0.70;;;27.20;57.30;;;;;;2352531;53;20168;-72
2022/09/07 09:01:36;;;;;;;4.07;1.08;;;27.30;57.20;;;;;;2352605;53;20934;-72
2022/09/07 09:04:05;;;;;;;3.40;1.00;;;27.30;57.10;;;;;;2348414;53;20950;-72
2022/09/07 09:07:18;;;;;;;4.07;0.88;;;27.40;57.10;;;;;;2577986;52;20949;-72
2022/09/07 09:13:01;;;;;;;4.18;1.40;;;27.50;57.20;;;;;;2351351;53;21455;-71
2022/09/07 09:27:00;;;;;;;5.55;0.80;;;27.60;57.20;;;;;;2352834;53;20951;-72
2022/09/07 09:29:29;;;;;;;1.52;0.60;;;28.20;56.50;;;;;;2601704;52;20982;-72
2022/09/07 09:31:56;;;;;;;2.92;0.93;;;28.20;56.40;;;;;;2351966;53;21005;-72
2022/09/07 09:34:32;;;;;;;3.00;1.05;;;28.30;56.20;;;;;;2352128;53;21745;-72
2022/09/07 09:37:00;;;;;;;2.53;0.95;;;28.30;55.70;;;;;;2572107;52;21004;-72
2022/09/07 09:39:31;;;;;;;3.03;0.90;;;28.40;55.90;;;;;;2327660;53;20989;-72
2022/09/07 09:42:00;;;;;;;3.83;0.98;;;28.40;55.90;;;;;;2329357;53;21064;-72
2022/09/07 09:44:33;;;;;;;2.95;0.90;;;28.50;55.70;;;;;;2573101;52;20973;-72
2022/09/07 09:47:01;;;;;;;2.22;0.90;;;28.50;55.50;;;;;;2458484;52;20978;-72
2022/09/07 09:50:02;;;;;;;3.58;1.02;;;28.50;55.50;;;;;;2569314;52;20952;-72
2022/09/07 09:52:31;;;;;;;2.62;0.95;;;28.60;55.10;;;;;;2347518;54;21415;-72
2022/09/07 09:54:59;;;;;;;3.15;0.95;;;28.70;55.00;;;;;;2346668;54;20994;-72
2022/09/07 09:57:57;;;;;;;3.28;0.90;;;28.70;55.00;;;;;;2344542;54;21607;-72
2022/09/07 10:00:55;;;;;;;5.07;1.10;;;28.80;54.60;;;;;;2343859;54;20994;-72
2022/09/07 10:03:51;;;;;;;2.80;0.90;;;28.80;54.50;;;;;;2338242;53;21025;-73
2022/09/07 10:06:20;;;;;;;2.92;1.15;;;28.90;54.40;;;;;;2322997;53;20965;-74
2022/09/07 10:08:57;;;;;;;2.85;0.98;;;28.90;54.30;;;;;;2344110;54;21009;-72
2022/09/07 10:12:06;;;;;;;1.92;0.82;;;29.00;53.90;;;;;;2343513;54;20962;-72
2022/09/07 10:14:42;;;;;;;3.37;1.10;;;29.00;53.90;;;;;;2347533;54;21009;-73
2022/09/07 10:17:28;;;;;;;2.33;0.80;;;29.00;53.80;;;;;;2352281;52;20942;-72
2022/09/07 10:26:43;;;;;;;2.60;0.80;;;29.10;54.00;;;;;;2350415;52;21135;-72
2022/09/07 10:29:26;;;;;;;2.45;0.80;;;29.20;53.50;;;;;;2320373;54;20926;-72
2022/09/07 10:34:04;;;;;;;2.70;0.75;;;29.30;53.30;;;;;;2320297;54;21026;-73
2022/09/07 10:37:07;;;;;;;2.22;0.73;;;29.30;53.30;;;;;;2318995;54;21612;-72
2022/09/07 10:42:29;;;;;;;2.60;0.90;;;29.30;53.20;;;;;;2543380;53;21536;-72
2022/09/07 10:45:08;;;;;;;2.78;0.60;;;29.40;53.20;;;;;;2319712;54;21812;-72
2022/09/07 10:47:59;;;;;;;2.00;0.80;;;29.40;53.10;;;;;;2320235;54;20948;-72
2022/09/07 10:50:50;;;;;;;3.75;0.88;;;29.40;52.80;;;;;;2320171;54;21423;-72
2022/09/07 10:53:54;;;;;;;4.30;0.80;;;29.50;52.60;;;;;;2320200;54;20983;-73
2022/09/07 11:03:31;;;;;;;5.03;1.08;;;29.50;52.60;;;;;;2319944;54;21066;-72
2022/09/07 11:06:21;;;;;;;1.67;0.60;;;29.70;52.60;;;;;;2433911;53;20922;-72
2022/09/07 11:12:22;;;;;;;2.30;0.80;;;29.70;51.20;;;;;;2317523;54;22198;-72
2022/09/07 11:15:26;;;;;;;2.28;0.82;;;29.70;51.80;;;;;;2314717;53;21010;-72
2022/09/07 11:18:13;;;;;;;1.95;0.80;;;29.70;51.50;;;;;;2387665;52;21055;-72
2022/09/07 11:20:45;;;;;;;3.22;1.02;;;29.70;51.30;;;;;;2327504;54;21106;-72
2022/09/07 11:26:54;;;;;;;1.73;0.75;;;29.70;51.20;;;;;;2345722;53;20976;-72
2022/09/07 11:30:20;;;;;;;2.92;0.90;;;29.70;51.50;;;;;;2329218;54;21015;-72
2022/09/07 11:34:42;;;;;;;2.40;0.80;;;29.70;51.10;;;;;;2329785;53;20900;-72
2022/09/07 11:37:20;;;;;;;1.80;0.62;;;29.70;51.20;;;;;;2573158;52;20916;-72
2022/09/07 11:40:33;;;;;;;1.62;0.70;;;29.80;51.00;;;;;;2509307;52;20995;-73
2022/09/07 11:44:45;;;;;;;1.80;0.60;;;29.80;51.00;;;;;;2575459;52;21471;-72
2022/09/07 11:47:17;;;;;;;1.92;0.70;;;29.80;50.30;;;;;;2575342;52;20931;-72
2022/09/07 11:49:43;;;;;;;;;;;29.80;50.60;;;;;;2464883;52;20971;-73
2022/09/07 11:52:35;;;;;;;2.53;0.82;;;29.90;50.70;;;;;;2565278;52;20234;-73
2022/09/07 11:55:13;;;;;;;3.53;0.70;;;29.90;50.70;;;;;;2325066;54;21103;-73
2022/09/07 12:12:01;;;;;;;2.33;0.80;;;30.00;50.60;;;;;;2328679;53;21059;-73
2022/09/07 12:16:09;;;;;;;1.12;0.47;;;30.40;50.70;;;;;;2322653;54;21009;-73
2022/09/07 12:19:08;;;;;;;1.40;0.52;;;30.40;49.80;;;;;;2325512;54;20952;-75
2022/09/07 12:22:16;;;;;;;1.35;0.55;;;30.50;49.10;;;;;;2325868;54;22113;-73
2022/09/07 12:24:52;;;;;;;1.45;0.50;;;30.60;49.40;;;;;;2320464;54;21043;-74
2022/09/07 12:27:40;;;;;;;2.53;0.60;;;30.70;49.60;;;;;;2318762;54;21078;-73
2022/09/07 12:30:39;;;;;;;2.87;0.80;;;30.70;48.50;;;;;;2319752;54;21043;-72
2022/09/07 12:33:18;;;;;;;1.95;0.70;;;30.80;48.80;;;;;;2321348;53;20977;-73
2022/09/07 12:35:46;;;;;;;1.48;0.50;;;31.00;48.60;;;;;;2562939;53;21578;-74
2022/09/07 12:39:04;;;;;;;2.58;0.77;;;31.00;48.60;;;;;;2305770;57;21076;-73
2022/09/07 12:41:44;;;;;;;2.05;0.80;;;31.10;47.70;;;;;;2315696;53;21029;-75
2022/09/07 12:44:15;;;;;;;1.75;0.70;;;31.10;46.90;;;;;;2485807;53;21022;-73
2022/09/07 12:53:48;;;;;;;1.95;0.57;;;31.10;47.30;;;;;;2339147;54;21561;-72
2022/09/07 13:03:21;;;;;;;2.08;0.50;;;31.10;46.70;;;;;;2373453;52;20989;-73
2022/09/07 13:06:47;;;;;;;1.67;0.50;;;31.30;46.50;;;;;;2350185;54;20938;-73
2022/09/07 13:09:33;;;;;;;1.65;0.50;;;31.30;45.90;;;;;;2346951;54;20988;-73
2022/09/07 13:12:19;;;;;;;1.93;0.57;;;31.30;45.40;;;;;;2591837;52;20943;-73
2022/09/07 13:15:50;;;;;;;1.67;0.70;;;31.30;45.50;;;;;;2462219;52;21654;-75
2022/09/07 13:19:35;;;;;;;3.25;0.50;;;31.30;44.10;;;;;;2377969;52;21387;-73
2022/09/07 13:22:01;;;;;;;2.83;0.70;;;31.20;44.30;;;;;;2343306;54;20994;-73
2022/09/07 13:25:18;;;;;;;1.23;0.47;;;31.20;44.50;;;;;;2347465;54;20950;-73
2022/09/07 13:27:51;;;;;;;3.12;0.75;;;31.10;43.80;;;;;;2347315;54;22101;-73
2022/09/07 13:30:44;;;;;;;1.35;0.50;;;31.00;43.90;;;;;;2346941;54;20953;-73
2022/09/07 13:39:59;;;;;;;4.97;0.60;;;30.90;43.40;;;;;;2347643;54;20949;-73
2022/09/07 13:42:28;;;;;;;1.80;0.40;;;30.70;44.30;;;;;;2347758;54;22078;-72
2022/09/07 13:44:59;;;;;;;4.62;0.73;;;30.60;44.20;;;;;;2348476;54;22100;-73
2022/09/07 13:48:08;;;;;;;2.25;0.70;;;30.50;44.30;;;;;;2340228;54;21024;-72
2022/09/07 13:54:30;;;;;;;2.03;0.60;;;30.40;44.50;;;;;;2345571;54;21367;-73
2022/09/07 13:57:45;;;;;;;1.08;0.47;;;30.30;44.70;;;;;;2484657;52;20950;-72
2022/09/07 14:00:13;;;;;;;1.15;0.50;;;30.00;45.10;;;;;;2341742;54;21009;-72
2022/09/07 14:02:39;;;;;;;1.40;0.60;;;29.90;45.40;;;;;;2348511;54;20922;-72
2022/09/07 14:05:06;;;;;;;3.03;0.70;;;29.80;45.70;;;;;;2340853;54;20973;-73
2022/09/07 14:07:32;;;;;;;1.73;0.70;;;29.70;46.00;;;;;;2396954;53;20949;-72
2022/09/07 14:10:27;;;;;;;1.05;0.50;;;29.70;46.30;;;;;;2585098;52;21033;-72
2022/09/07 14:13:12;;;;;;;1.45;0.52;;;29.70;46.40;;;;;;2568446;52;22015;-73
2022/09/07 14:15:42;;;;;;;1.52;0.70;;;29.60;46.40;;;;;;2347490;54;20902;-72
2022/09/07 14:18:21;;;;;;;3.20;0.57;;;29.60;46.60;;;;;;2343388;54;20950;-73
2022/09/07 14:20:49;;;;;;;1.00;0.45;;;29.60;46.40;;;;;;2552341;52;20942;-72
2022/09/07 14:23:21;;;;;;;0.93;0.40;;;29.50;46.10;;;;;;2346616;54;20934;-72
2022/09/07 14:25:47;;;;;;;2.22;0.70;;;29.50;46.20;;;;;;2347730;54;21303;-72
2022/09/07 14:28:45;;;;;;;1.35;0.52;;;29.50;46.60;;;;;;2346027;54;20930;-73
2022/09/07 14:31:13;;;;;;;0.98;0.45;;;29.50;46.90;;;;;;2350816;54;21456;-72
2022/09/07 14:33:56;;;;;;;1.08;0.50;;;29.40;47.20;;;;;;2351747;53;20929;-72
2022/09/07 14:36:37;;;;;;;0.73;0.40;;;29.50;47.20;;;;;;2602278;52;20969;-73
2022/09/07 14:39:11;;;;;;;1.50;0.70;;;29.50;47.10;;;;;;2350456;54;22038;-72
2022/09/07 14:41:40;;;;;;;1.10;0.40;;;29.40;47.20;;;;;;2349853;54;22043;-73
2022/09/07 14:44:25;;;;;;;1.48;0.50;;;29.40;47.20;;;;;;2346328;54;21029;-72
2022/09/07 14:50:32;;;;;;;2.08;0.50;;;29.40;46.90;;;;;;2601882;52;20895;-72
2022/09/07 14:52:58;;;;;;;2.22;0.60;;;29.30;46.90;;;;;;2351488;54;21977;-72
2022/09/07 14:56:01;;;;;;;1.40;0.50;;;29.30;47.00;;;;;;2404450;52;21350;-72
2022/09/07 14:59:07;;;;;;;1.58;0.50;;;29.30;46.90;;;;;;2352692;54;21462;-72
2022/09/07 15:01:34;;;;;;;1.77;0.70;;;29.30;46.80;;;;;;2348084;54;21048;-72
2022/09/07 15:04:17;;;;;;;1.35;0.50;;;29.30;46.90;;;;;;2597612;52;20927;-72
2022/09/07 15:06:45;;;;;;;1.23;0.50;;;29.20;46.90;;;;;;2347283;54;21313;-73
2022/09/07 15:09:34;;;;;;;1.62;0.60;;;29.20;46.90;;;;;;2348381;54;20923;-72
2022/09/07 15:12:39;;;;;;;0.95;0.45;;;29.20;46.90;;;;;;2316241;54;20988;-72
2022/09/07 15:17:01;;;;;;;1.60;0.55;;;29.20;46.90;;;;;;2320275;54;21347;-74
2022/09/07 15:19:57;;;;;;;1.42;0.50;;;29.20;46.60;;;;;;2321288;54;20956;-74
2022/09/07 15:22:33;;;;;;;1.42;0.50;;;29.20;46.60;;;;;;2319857;53;21111;-73
2022/09/07 15:24:59;;;;;;;1.15;0.47;;;29.30;46.50;;;;;;2348135;54;21863;-73
2022/09/07 15:27:27;;;;;;;1.50;0.47;;;29.20;46.50;;;;;;2343417;54;20993;-74
2022/09/07 15:29:53;;;;;;;1.73;0.62;;;29.20;46.40;;;;;;2343667;54;21012;-74
2022/09/07 15:32:20;;;;;;;3.62;0.68;;;29.20;46.40;;;;;;2348537;54;21273;-72
2022/09/07 15:34:46;;;;;;;1.40;0.57;;;29.20;46.50;;;;;;2344887;54;20933;-72
2022/09/07 15:37:12;;;;;;;1.50;0.57;;;29.30;46.30;;;;;;2333276;53;21522;-72
2022/09/07 15:40:17;;;;;;;2.40;0.60;;;29.30;46.10;;;;;;2348218;54;21048;-72
2022/09/07 15:43:20;;;;;;;1.05;0.50;;;29.30;45.70;;;;;;2348164;54;20959;-73
2022/09/07 15:45:47;;;;;;;1.17;0.50;;;29.30;45.60;;;;;;2382979;52;20975;-74
2022/09/07 15:48:14;;;;;;;2.08;0.55;;;29.30;45.90;;;;;;2348029;54;20993;-72
2022/09/07 15:50:40;;;;;;;1.48;0.50;;;29.30;45.90;;;;;;2343566;54;21088;-72
2022/09/07 15:53:07;;;;;;;0.98;0.40;;;29.20;45.90;;;;;;2350958;52;20913;-75